Data for 05/10/2005

Time Sea-Level Adjusted Pressure Absolute Pressure Temperature Relative Humidity Dew Point   
(mb) (inHg) (mb) (inHg) (C) (F) (%) (C) (F)
00:05 1010 29.83 839 24.78 8.4 47 87 6.3 43.3
00:10 1010 29.83 839 24.78 8.3 47 87 6.3 43.3
00:15 1010 29.83 839 24.78 8.3 47 87 6.3 43.3
00:20 1010 29.83 839 24.78 8.3 46.9 88 6.3 43.4
00:25 1010 29.83 839 24.78 8.2 46.7 88 6.3 43.3
00:30 1010 29.83 839 24.78 8.2 46.8 88 6.3 43.3
00:35 1010 29.83 839 24.78 8.2 46.8 87 6.2 43.2
00:40 1010 29.83 839 24.78 8.3 46.9 87 6.2 43.2
00:45 1010 29.83 839 24.78 8.3 47 87 6.3 43.3
00:50 1010 29.83 839 24.78 8.3 46.9 87 6.2 43.2
00:55 1010 29.83 839 24.78 8.3 47 87 6.2 43.2
01:00 1010 29.83 839 24.78 8.3 47 87 6.3 43.3
01:05 1010 29.83 839 24.78 8.3 47 87 6.3 43.3
01:10 1010 29.83 839 24.78 8.3 47 87 6.3 43.4
01:15 1010 29.83 839 24.78 8.3 46.9 87 6.3 43.4
01:20 1010 29.83 839 24.78 8.3 46.9 88 6.3 43.4
01:25 1010 29.83 839 24.78 8.3 46.9 88 6.4 43.4
01:30 1010 29.83 839 24.78 8.3 47 88 6.4 43.5
01:35 1010 29.83 839 24.78 8.3 47 87 6.4 43.4
01:40 1010 29.83 839 24.78 8.3 46.9 87 6.3 43.4
01:45 1010 29.83 839 24.78 8.3 47 87 6.3 43.3
01:50 1010 29.83 839 24.78 8.4 47.1 87 6.4 43.5
01:55 1010 29.83 839 24.78 8.3 46.9 88 6.4 43.5
02:00 1010 29.83 839 24.78 8.3 46.9 88 6.4 43.5
02:05 1010 29.83 839 24.78 8.3 46.9 88 6.5 43.6
02:10 1010 29.83 839 24.78 8.2 46.8 89 6.6 43.8
02:15 1010 29.83 839 24.78 8.1 46.6 90 6.6 43.9
02:20 1010 29.83 839 24.78 8 46.4 91 6.6 43.9
02:25 1010 29.83 839 24.78 8 46.3 91 6.6 43.9
02:30 1010 29.83 839 24.78 7.9 46.2 92 6.7 44
02:35 1010 29.83 839 24.78 7.8 46 92 6.6 43.8
02:40 1010 29.83 839 24.78 7.8 46 91 6.4 43.6
02:45 1010 29.83 839 24.78 7.8 46.1 89 6.2 43.1
02:50 1010 29.83 839 24.78 7.8 46 90 6.2 43.2
02:55 1010 29.83 839 24.78 7.7 45.9 90 6.2 43.2
03:00 1010 29.83 839 24.78 7.6 45.8 90 6.1 42.9
03:05 1010 29.83 839 24.78 7.6 45.7 89 5.9 42.7
03:10 1010 29.83 839 24.78 7.7 45.8 89 5.9 42.7
03:15 1010 29.83 839 24.78 7.7 45.9 88 5.9 42.6
03:20 1010 29.83 839 24.78 7.7 45.9 89 6 42.8
03:25 1010 29.83 839 24.78 7.6 45.8 90 6.1 42.9
03:30 1010 29.83 839 24.78 7.6 45.6 91 6.1 43
03:35 1010 29.83 839 24.78 7.5 45.6 90 6.1 42.9
03:40 1010 29.83 839 24.78 7.6 45.6 90 6.1 42.9
03:45 1010 29.83 839 24.78 7.6 45.6 91 6.1 43
03:50 1010 29.83 839 24.78 7.5 45.5 91 6.1 43
03:55 1010 29.83 839 24.78 7.5 45.5 92 6.2 43.2
04:00 1010 29.83 839 24.78 7.4 45.3 92 6.1 43
04:05 1010 29.83 839 24.78 7.3 45.2 92 6.1 43
04:10 1010 29.83 839 24.78 7.3 45.2 92 6.1 42.9
04:15 1010 29.83 839 24.78 7.4 45.3 90 5.9 42.6
04:20 1010 29.83 839 24.78 7.3 45.2 90 5.7 42.3
04:25 1010 29.83 839 24.78 7.3 45.1 89 5.5 42
04:30 1010 29.83 839 24.78 7.2 44.9 88 5.3 41.6
04:35 1010 29.83 839 24.78 7 44.7 89 5.3 41.6
04:40 1010 29.83 839 24.78 6.9 44.5 89 5.3 41.5
04:45 1010 29.83 839 24.78 6.9 44.4 86 4.8 40.6
04:50 1010 29.83 839 24.78 6.9 44.4 87 4.8 40.7
04:55 1010 29.83 839 24.78 6.8 44.3 86 4.7 40.4
05:00 1010 29.83 839 24.78 6.8 44.2 88 4.9 40.8
05:05 1010 29.83 839 24.78 6.7 44.1 88 4.8 40.7
05:10 1010 29.83 839 24.78 6.7 44.1 86 4.5 40
05:15 1010 29.83 839 24.78 6.8 44.2 85 4.4 39.9
05:20 1010 29.83 839 24.78 6.7 44 86 4.5 40.1
05:25 1010 29.83 839 24.78 6.6 43.9 85 4.2 39.6
05:30 1010 29.83 839 24.78 6.7 44 84 4.2 39.6
05:35 1010 29.83 839 24.78 6.7 44.1 84 4.2 39.6
05:40 1010 29.83 839 24.78 6.7 44.1 83 4.1 39.3
05:45 1010 29.83 839 24.78 6.7 44.1 84 4.2 39.6
05:50 1010 29.83 839 24.78 6.8 44.2 82 3.9 39.1
05:55 1010 29.83 839 24.78 6.8 44.3 83 4.1 39.4
06:00 1010 29.83 839 24.78 6.8 44.2 82 3.9 39.1
06:05 1010 29.83 839 24.78 6.8 44.2 83 4.1 39.4
06:10 1010 29.83 839 24.78 6.7 44.1 82 3.9 39.1
06:15 1010 29.83 839 24.78 6.7 44.1 81 3.8 38.8
06:20 1010 29.83 839 24.78 6.7 44.1 81 3.6 38.5
06:25 1010 29.83 839 24.78 6.7 44 81 3.6 38.5
06:30 1010 29.83 839 24.78 6.7 44 81 3.6 38.5
06:35 1010 29.83 839 24.78 6.7 44 80 3.5 38.3
06:40 1010 29.83 839 24.78 6.6 43.9 80 3.5 38.3
06:45 1010 29.83 839 24.78 6.6 43.9 81 3.6 38.4
06:50 1010 29.83 839 24.78 6.5 43.7 81 3.4 38.1
06:55 1010 29.83 839 24.78 6.5 43.8 79 3.3 37.9
07:00 1010 29.83 839 24.78 6.4 43.6 81 3.5 38.3
07:05 1010 29.83 839 24.78 6.4 43.5 79 3 37.5
07:10 1010 29.83 839 24.78 6.4 43.5 79 3.1 37.6
07:15 1010 29.83 839 24.78 6.4 43.5 78 2.9 37.2
07:20 1010 29.83 839 24.78 6.3 43.3 80 3.1 37.5
07:25 1010 29.83 839 24.78 6 42.8 80 2.9 37.2
07:30 1010 29.83 839 24.78 6 42.8 83 3.3 37.9
07:35 1010 29.83 839 24.78 5.9 42.6 81 3 37.4
07:40 1010 29.83 839 24.78 6 42.7 81 3 37.4
07:45 1010 29.83 839 24.78 6 42.8 81 3.1 37.5
07:50 1010 29.83 839 24.78 6 42.8 83 3.4 38
07:55 1010 29.83 839 24.78 5.9 42.7 84 3.5 38.3
08:00 1010 29.83 839 24.78 6 42.8 81 3.1 37.5
08:05 1010 29.83 839 24.78 6.1 42.9 81 3.1 37.6
08:10 1010 29.83 839 24.78 6.1 42.9 82 3.2 37.8
08:15 1010 29.83 839 24.78 6 42.9 81 2.9 37.3
08:20 1010 29.83 839 24.78 6 42.8 82 3.1 37.6
08:25 1010 29.83 840 24.81 5.9 42.6 82 3 37.5
08:30 1010 29.83 840 24.81 5.9 42.5 83 3.2 37.7
08:35 1010 29.83 839 24.78 5.7 42.3 84 3.2 37.7
08:40 1010 29.83 840 24.81 5.5 41.9 85 3.1 37.7
08:45 1010 29.83 840 24.81 5.4 41.7 84 2.9 37.1
08:50 1010 29.83 840 24.81 5.3 41.6 85 3 37.4
08:55 1011 29.85 840 24.81 5.3 41.5 84 2.9 37.1
09:00 1011 29.85 840 24.81 5.3 41.5 84 2.8 37
09:05 1011 29.85 840 24.81 5.2 41.4 84 2.8 37
09:10 1011 29.85 840 24.81 5.2 41.3 84 2.7 36.8
09:15 1011 29.85 840 24.81 5.1 41.3 84 2.7 36.9
09:20 1011 29.85 840 24.81 5.2 41.3 85 2.8 37.1
09:25 1011 29.85 840 24.81 5.2 41.3 84 2.8 37
09:30 1011 29.85 840 24.81 5.3 41.5 85 2.9 37.2
09:35 1011 29.85 840 24.81 5.4 41.6 84 2.9 37.2
09:40 1011 29.85 840 24.81 5.5 41.8 85 3.2 37.7
09:45 1011 29.85 840 24.81 5.5 41.9 84 3 37.4
09:50 1011 29.85 840 24.81 5.5 41.9 84 3 37.4
09:55 1011 29.85 840 24.81 5.5 41.9 84 3 37.4
10:00 1011 29.85 840 24.81 5.6 42 83 3 37.3
10:05 1011 29.85 840 24.81 5.6 42.1 82 2.8 37.1
10:10 1011 29.85 840 24.81 5.6 42.1 82 2.8 37.1
10:15 1011 29.85 840 24.81 5.6 42.1 83 3 37.4
10:20 1011 29.85 840 24.81 5.7 42.3 82 3 37.3
10:25 1011 29.85 840 24.81 5.8 42.4 82 3 37.3
10:30 1011 29.85 841 24.83 5.7 42.3 82 2.9 37.2
10:35 1011 29.85 840 24.81 5.8 42.4 82 3 37.4
10:40 1011 29.85 841 24.83 6.2 43.1 81 3.1 37.5
10:45 1011 29.85 840 24.81 6.1 43 81 3.1 37.6
10:50 1011 29.85 840 24.81 6.2 43.2 79 2.9 37.3
10:55 1011 29.85 841 24.83 6.1 43 79 2.8 37
11:00 1012 29.88 841 24.83 6.1 43.1 80 3 37.3
11:05 1012 29.88 841 24.83 6.1 43 79 2.7 36.9
11:10 1012 29.88 841 24.83 6.1 43 79 2.8 37
11:15 1012 29.88 841 24.83 6.2 43.2 79 2.8 37.1
11:20 1012 29.88 841 24.83 6.3 43.4 80 3.1 37.5
11:25 1012 29.88 841 24.83 6.4 43.5 78 2.9 37.3
11:30 1012 29.88 841 24.83 6.6 43.8 79 3.1 37.6
11:35 1012 29.88 841 24.83 6.5 43.8 78 3.1 37.5
11:40 1012 29.88 841 24.83 6.5 43.7 79 3.1 37.5
11:45 1012 29.88 842 24.86 6.5 43.7 79 3.2 37.7
11:50 1012 29.88 842 24.86 6.4 43.5 81 3.4 38
11:55 1013 29.91 842 24.86 6.2 43.2 81 3.3 37.9
12:00 1013 29.91 842 24.86 6.2 43.2 83 3.5 38.2
12:05 1013 29.91 842 24.86 6.1 43 81 3.2 37.7
12:10 1013 29.91 842 24.86 6.2 43.1 80 3 37.4
12:15 1013 29.91 842 24.86 6.1 43 80 3 37.4
12:20 1013 29.91 842 24.86 6 42.9 81 3 37.4
12:25 1013 29.91 842 24.86 6 42.9 81 3 37.4
12:30 1013 29.91 842 24.86 6.1 43 80 2.9 37.3
12:35 1013 29.91 842 24.86 6.1 43 80 3 37.3
12:40 1013 29.91 842 24.86 6.1 43 80 2.9 37.3
12:45 1013 29.91 842 24.86 6.2 43.1 81 3.1 37.5
12:50 1013 29.91 842 24.86 6.2 43.1 81 3.1 37.6
12:55 1013 29.91 842 24.86 6.1 43 81 3.1 37.7
13:00 1013 29.91 842 24.86 6.3 43.3 80 3 37.4
13:05 1013 29.91 842 24.86 6.2 43.2 81 3.2 37.8
13:10 1013 29.91 842 24.86 6.3 43.4 82 3.4 38.2
13:15 1013 29.91 842 24.86 6.6 43.9 80 3.4 38
13:20 1013 29.91 842 24.86 6.7 44.1 79 3.4 38.1
13:25 1013 29.91 842 24.86 6.6 43.9 79 3.2 37.8
13:30 1013 29.91 842 24.86 6.5 43.8 79 3.2 37.7
13:35 1013 29.91 842 24.86 6.5 43.7 79 3.2 37.7
13:40 1013 29.91 842 24.86 6.5 43.7 79 3.1 37.5
13:45 1013 29.91 842 24.86 6.6 43.8 79 3.1 37.6
13:50 1013 29.91 842 24.86 6.6 43.8 79 3.2 37.7
13:55 1013 29.91 843 24.89 6.6 43.8 78 3.1 37.5
14:00 1013 29.91 843 24.89 6.5 43.7 79 3.1 37.6
14:05 1013 29.91 842 24.86 6.6 43.8 80 3.3 37.9
14:10 1013 29.91 843 24.89 6.7 44 80 3.4 38.1
14:15 1013 29.91 843 24.89 6.8 44.2 79 3.5 38.2
14:20 1013 29.91 843 24.89 6.9 44.5 79 3.5 38.3
14:25 1014 29.94 843 24.89 7.2 44.9 77 3.4 38.1
14:30 1013 29.91 843 24.89 7.2 45 78 3.6 38.5
14:35 1013 29.91 843 24.89 7.2 45 78 3.6 38.5
14:40 1014 29.94 843 24.89 7.2 44.9 78 3.6 38.5
14:45 1014 29.94 843 24.89 7.3 45.1 78 3.7 38.6
14:50 1014 29.94 843 24.89 7.3 45.2 76 3.4 38.1
14:55 1014 29.94 843 24.89 7.3 45.2 75 3.2 37.8
15:00 1014 29.94 843 24.89 7.4 45.3 77 3.5 38.4
15:05 1013 29.91 843 24.89 7.5 45.5 75 3.4 38
15:10 1014 29.94 843 24.89 7.5 45.5 76 3.6 38.5
15:15 1014 29.94 843 24.89 7.5 45.5 76 3.5 38.4
15:20 1014 29.94 843 24.89 7.4 45.3 77 3.6 38.4
15:25 1014 29.94 843 24.89 7.3 45.1 76 3.4 38.1
15:30 1013 29.91 843 24.89 7.2 45 76 3.4 38
15:35 1014 29.94 843 24.89 7.2 45 77 3.4 38.1
15:40 1014 29.94 843 24.89 7.3 45.1 77 3.5 38.4
15:45 1014 29.94 843 24.89 7.2 45 77 3.4 38.1
15:50 1014 29.94 843 24.89 7.1 44.8 77 3.4 38.1
15:55 1014 29.94 843 24.89 7 44.6 78 3.4 38
16:00 1014 29.94 843 24.89 6.8 44.3 80 3.6 38.5
16:05 1014 29.94 844 24.92 6.7 44.1 80 3.5 38.4
16:10 1014 29.94 843 24.89 6.7 44.1 79 3.3 38
16:15 1014 29.94 844 24.92 6.6 43.9 81 3.6 38.4
16:20 1014 29.94 844 24.92 6.5 43.6 83 3.8 38.8
16:25 1014 29.94 844 24.92 6.4 43.5 84 3.9 38.9
16:30 1014 29.94 844 24.92 6.2 43.2 84 3.8 38.8
16:35 1014 29.94 844 24.92 6.3 43.3 85 4 39.1
16:40 1015 29.97 844 24.92 6.3 43.4 84 3.8 38.9
16:45 1015 29.97 844 24.92 6.3 43.4 85 3.9 39.1
16:50 1015 29.97 844 24.92 6.3 43.4 83 3.7 38.7
16:55 1015 29.97 844 24.92 6.4 43.5 84 3.9 39
17:00 1015 29.97 844 24.92 6.3 43.4 84 3.9 39
17:05 1015 29.97 844 24.92 6.3 43.3 84 3.8 38.8
17:10 1015 29.97 844 24.92 6.2 43.2 85 3.9 38.9
17:15 1015 29.97 844 24.92 6.2 43.2 85 3.9 39.1
17:20 1015 29.97 844 24.92 6.1 43 87 4 39.3
17:25 1015 29.97 844 24.92 6.1 43 87 4 39.2
17:30 1015 29.97 844 24.92 6.1 43 87 4 39.3
17:35 1015 29.97 844 24.92 6 42.9 87 4.1 39.3
17:40 1015 29.97 844 24.92 6.1 42.9 86 3.9 39
17:45 1015 29.97 844 24.92 6 42.8 86 3.9 39
17:50 1015 29.97 844 24.92 5.9 42.6 87 3.9 39
17:55 1015 29.97 844 24.92 5.9 42.6 88 4 39.2
18:00 1015 29.97 844 24.92 5.9 42.5 88 4 39.2
18:05 1015 29.97 844 24.92 5.9 42.6 88 4.1 39.3
18:10 1015 29.97 845 24.95 5.9 42.6 88 4 39.2
18:15 1015 29.97 845 24.95 5.9 42.7 89 4.2 39.6
18:20 1015 29.97 845 24.95 5.9 42.7 88 4 39.2
18:25 1016 30 845 24.95 6 42.7 87 3.9 39.1
18:30 1016 30 845 24.95 6 42.7 85 3.6 38.5
18:35 1016 30 845 24.95 5.9 42.7 84 3.4 38.2
18:40 1016 30 845 24.95 5.9 42.7 84 3.4 38.2
18:45 1015 29.97 845 24.95 5.9 42.7 84 3.4 38.1
18:50 1016 30 845 24.95 5.9 42.6 85 3.5 38.4
18:55 1016 30 845 24.95 5.8 42.4 87 3.7 38.7
19:00 1016 30 845 24.95 5.7 42.3 86 3.6 38.4
19:05 1016 30 845 24.95 5.6 42.2 85 3.4 38.1
19:10 1016 30 845 24.95 5.5 41.9 86 3.4 38.1
19:15 1016 30 845 24.95 5.3 41.5 86 3.2 37.8
19:20 1016 30 845 24.95 5.2 41.3 87 3.2 37.8
19:25 1016 30 845 24.95 5.1 41.1 88 3.2 37.8
19:30 1016 30 845 24.95 5 41 88 3.2 37.7
19:35 1016 30 845 24.95 4.9 40.8 88 3.1 37.6
19:40 1016 30 845 24.95 4.8 40.7 87 2.9 37.2
19:45 1016 30 845 24.95 4.8 40.7 88 3 37.4
19:50 1016 30 845 24.95 4.9 40.8 87 2.9 37.3
19:55 1016 30 845 24.95 4.9 40.8 87 3 37.3
20:00 1016 30 846 24.98 5 40.9 87 3 37.5
20:05 1016 30 846 24.98 5 41.1 87 3.1 37.6
20:10 1016 30 846 24.98 5 41.1 87 3 37.4
20:15 1016 30 846 24.98 5.1 41.3 86 3 37.3
20:20 1016 30 846 24.98 5.1 41.2 86 2.9 37.2
20:25 1016 30 846 24.98 5.1 41.1 86 2.8 37.1
20:30 1016 30 846 24.98 5 41 85 2.7 36.9
20:35 1016 30 846 24.98 5.2 41.3 83 2.6 36.6
20:40 1016 30 846 24.98 5.2 41.3 84 2.7 36.9
20:45 1016 30 846 24.98 5.1 41.2 84 2.7 36.8
20:50 1016 30 846 24.98 5.1 41.2 84 2.6 36.6
20:55 1017 30.03 846 24.98 5.1 41.2 84 2.6 36.8
21:00 1016 30 846 24.98 5.4 41.7 81 2.5 36.4
21:05 1017 30.03 846 24.98 5.6 42.1 80 2.4 36.3
21:10 1017 30.03 846 24.98 5.7 42.2 81 2.7 36.8
21:15 1017 30.03 846 24.98 5.6 42 82 2.7 36.9
21:20 1017 30.03 846 24.98 5.4 41.6 81 2.4 36.4
21:25 1017 30.03 846 24.98 5.1 41.3 83 2.6 36.6
21:30 1017 30.03 846 24.98 5 40.9 84 2.5 36.5
21:35 1017 30.03 846 24.98 4.8 40.7 85 2.5 36.6
21:40 1017 30.03 846 24.98 4.9 40.8 84 2.4 36.4
21:45 1017 30.03 846 24.98 4.7 40.4 85 2.4 36.4
21:50 1017 30.03 846 24.98 4.6 40.3 86 2.5 36.4
21:55 1017 30.03 846 24.98 4.6 40.3 84 2.2 36
22:00 1017 30.03 846 24.98 4.7 40.4 85 2.3 36.2
22:05 1017 30.03 846 24.98 4.7 40.5 84 2.2 35.9
22:10 1017 30.03 846 24.98 4.8 40.7 83 2.2 36
22:15 1017 30.03 846 24.98 4.8 40.7 83 2.3 36.1
22:20 1017 30.03 846 24.98 5 40.9 83 2.3 36.2
22:25 1017 30.03 846 24.98 5 40.9 83 2.2 36
22:30 1017 30.03 846 24.98 4.9 40.8 84 2.4 36.4
22:35 1017 30.03 846 24.98 4.8 40.6 85 2.5 36.5
22:40 1017 30.03 846 24.98 4.7 40.4 85 2.4 36.3
22:45 1017 30.03 846 24.98 4.5 40.2 86 2.5 36.4
22:50 1017 30.03 846 24.98 4.4 39.9 86 2.3 36.2
22:55 1017 30.03 846 24.98 4.4 39.9 86 2.3 36.2
23:00 1017 30.03 846 24.98 4.3 39.8 87 2.3 36.2
23:05 1017 30.03 846 24.98 4.2 39.6 88 2.4 36.3
23:10 1017 30.03 846 24.98 4.1 39.4 88 2.4 36.3
23:15 1017 30.03 846 24.98 4.1 39.4 89 2.4 36.4
23:20 1017 30.03 846 24.98 4 39.3 89 2.4 36.3
23:25 1017 30.03 846 24.98 4 39.3 88 2.3 36.1
23:30 1017 30.03 846 24.98 4.1 39.3 88 2.2 36
23:35 1017 30.03 846 24.98 4.1 39.3 88 2.2 36
23:40 1017 30.03 846 24.98 4.1 39.4 88 2.3 36.1
23:45 1017 30.03 846 24.98 4.1 39.3 87 2.1 35.8
23:50 1017 30.03 846 24.98 4 39.3 88 2.2 36
23:55 1017 30.03 846 24.98 4.1 39.4 89 2.4 36.3
24:00 1017 30.03 846 24.98 4 39.2 89 2.4 36.3